Schuyler, NE (68661)

12:03 PM CDT on July 30, 2016 (GMT -0500)
Mancave PWS | | Change Station

Elev 1358 ft 41.46 °N, 97.06 °W | Updated 3 minutes ago

Scattered Clouds
Scattered Clouds
72.1 °F
Feels Like 74 °F
N
7.3
Wind Variable Wind from East

Today
High -- | Low -- °F
--% Chance of Precip.
Yesterday
High -- | Low -- °F
Precip. -- in
Pressure 30.03 in
Visibility 10.0 miles
Clouds Few 1000 ft
Scattered Clouds 3300 ft
Heat Index 74 °F
Dew Point 63 °F
Humidity 74%
Rainfall 0.00 in
Snow Depth Not available.
6:21 AM 8:47 PM
Waning Crescent, 12% visible
METAR KOLU 301655Z AUTO 11003KT 10SM FEW010 SCT033 21/16 A3003 RMK AO2 PWINO FZRANO RVRNO
Pressure 30.03 in
Visibility 10.0 miles
Clouds Few 1000 ft
Scattered Clouds 3300 ft
Heat Index 74 °F
Dew Point 63 °F
Humidity 74%
Rainfall 0.00 in
Snow Depth Not available.
6:21 AM 8:47 PM
Waning Crescent, 12% visible
METAR KOLU 301655Z AUTO 11003KT 10SM FEW010 SCT033 21/16 A3003 RMK AO2 PWINO FZRANO RVRNO

10-Day Weather Forecast

Almanac

Astronomy

Jul. 30, 2016 Rise Set
Actual Time
Civil Twilight
Nautical Twilight
Astronomical Twilight
Moon
Length of Visible Light
Length of Day
Tomorrow will be .
, % of the Moon is Illuminated

Today's Extremes

State Highs State Lows

Community

WunderPhotos

Upload Photos

1,928,598 photos uploaded!

WunderBlog® & News

Nearby

Air Quality

  Air Quality AQ Index Pollutant
Not available.

Snow Depth

Station Depth Elevation

Earthquake Activity

City Distance Mag. Time & Date
Minimum magnitude displayed is 2.5.

Coastal Water Temperatures

Place Temperature

Stations

Nearby Weather Stations

Station Location Temp. Windchill Dew Point Humidity Wind Precip. Elev Updated Type
                   

Watches & Warnings

There are currently no watches in effect.